This is the latest recevied weather packets stored in our database for station/object SV9TNF-2. If no packets are shown the sender has not sent any weather packets the latest 10 day(s).
| Time | Temp. | Humidity | Pressure | Rain* | Wind** | Luminosity | Snow |
|---|---|---|---|---|---|---|---|
| 1777878017 | 16.67° C | 52% | 1025.7 hPa | 0 mm | 12.52 m/s, 351° | - | - |
| 1777877717 | 16.67° C | 53% | 1025.7 hPa | 0 mm | 17.88 m/s, 356° | - | - |
| 1777877417 | 16.67° C | 52% | 1025.7 hPa | 0 mm | 9.83 m/s, 19° | - | - |
| 1777877117 | 16.67° C | 52% | 1025.7 hPa | 0 mm | 19.67 m/s, 358° | - | - |
| 1777876816 | 16.67° C | 51% | 1025.7 hPa | 0 mm | 25.03 m/s, 18° | - | - |
| 1777876516 | 16.67° C | 55% | 1025.7 hPa | 0 mm | 14.31 m/s, 42° | - | - |
| 1777876216 | 16.11° C | 53% | 1025.7 hPa | 0 mm | 23.69 m/s, 0° | - | - |
| 1777875916 | 16.67° C | 55% | 1025.7 hPa | 0 mm | 11.62 m/s, 34° | - | - |
| 1777875616 | 16.11° C | 54% | 1025.7 hPa | 0 mm | 24.59 m/s, 3° | - | - |
| 1777875317 | 16.11° C | 52% | 1025.7 hPa | 0 mm | 26.38 m/s, 14° | - | - |
| 1777875017 | 16.11° C | 55% | 1025.7 hPa | 0 mm | 16.99 m/s, 14° | - | - |
| 1777874716 | 16.11° C | 54% | 1025.7 hPa | 0 mm | 24.59 m/s, 321° | - | - |
| 1777874416 | 15.56° C | 54% | 1025.4 hPa | 0 mm | 22.8 m/s, 60° | - | - |
| 1777874116 | 16.11° C | 53% | 1025.4 hPa | 0 mm | 22.35 m/s, 12° | - | - |
| 1777873816 | 16.67° C | 56% | 1025.4 hPa | 0 mm | 12.07 m/s, 47° | - | - |
| 1777873516 | 15.56° C | 53% | 1025.4 hPa | 0 mm | 28.61 m/s, 24° | - | - |
| 1777873216 | 15.56° C | 57% | 1025.4 hPa | 0 mm | 8.05 m/s, 74° | - | - |
| 1777872915 | 16.11° C | 55% | 1025.4 hPa | 0 mm | 16.54 m/s, 80° | - | - |
| 1777872616 | 15.56° C | 55% | 1025.4 hPa | 0 mm | 15.65 m/s, 2° | - | - |
| 1777872315 | 15° C | 57% | 1025.4 hPa | 0 mm | 12.07 m/s, 225° | - | - |
| 1777872015 | 15.56° C | 61% | 1025.1 hPa | 0 mm | 19.22 m/s, 99° | - | - |
| 1777871715 | 15.56° C | 58% | 1025.1 hPa | 0 mm | 16.99 m/s, 83° | - | - |
| 1777871415 | 15° C | 59% | 1025.1 hPa | 0 mm | 17.43 m/s, 23° | - | - |
| 1777871115 | 15.56° C | 57% | 1025.1 hPa | 0 mm | 14.75 m/s, 0° | - | - |
| 1777870815 | 15° C | 60% | 1025.1 hPa | 0 mm | 18.33 m/s, 57° | - | - |
* Rain latest hour (hover to see other rain measurements)
** Current wind speed in m/s (hover to see current wind gust speed)